sensor_id;sensor_type;location;lat;lon;timestamp;P1;durP1;ratioP1;P2;durP2;ratioP2
67768;SDS011;54569;52.018;5.584;2023-04-24T00:00:53;3.45;;;2.67;;
67768;SDS011;54569;52.018;5.584;2023-04-24T00:03:23;3.15;;;2.67;;
67768;SDS011;54569;52.018;5.584;2023-04-24T00:05:49;2.53;;;2.30;;
67768;SDS011;54569;52.018;5.584;2023-04-24T00:08:15;3.92;;;2.38;;
67768;SDS011;54569;52.018;5.584;2023-04-24T00:10:40;3.00;;;2.25;;
67768;SDS011;54569;52.018;5.584;2023-04-24T00:13:06;2.20;;;2.10;;
67768;SDS011;54569;52.018;5.584;2023-04-24T00:15:32;2.20;;;2.00;;
67768;SDS011;54569;52.018;5.584;2023-04-24T00:17:58;2.75;;;2.42;;
67768;SDS011;54569;52.018;5.584;2023-04-24T00:20:23;2.20;;;2.08;;
67768;SDS011;54569;52.018;5.584;2023-04-24T00:22:49;1.90;;;1.80;;
67768;SDS011;54569;52.018;5.584;2023-04-24T00:25:15;2.03;;;1.92;;
67768;SDS011;54569;52.018;5.584;2023-04-24T00:27:41;2.20;;;1.90;;
67768;SDS011;54569;52.018;5.584;2023-04-24T00:30:06;2.28;;;1.80;;
67768;SDS011;54569;52.018;5.584;2023-04-24T00:32:32;1.50;;;1.40;;
67768;SDS011;54569;52.018;5.584;2023-04-24T00:34:58;2.28;;;1.58;;
67768;SDS011;54569;52.018;5.584;2023-04-24T00:37:24;1.88;;;1.55;;
67768;SDS011;54569;52.018;5.584;2023-04-24T00:39:50;2.10;;;1.85;;
67768;SDS011;54569;52.018;5.584;2023-04-24T00:42:16;2.42;;;2.05;;
67768;SDS011;54569;52.018;5.584;2023-04-24T00:44:41;2.03;;;1.92;;
67768;SDS011;54569;52.018;5.584;2023-04-24T00:47:07;3.28;;;2.10;;
67768;SDS011;54569;52.018;5.584;2023-04-24T00:49:33;2.42;;;2.20;;
67768;SDS011;54569;52.018;5.584;2023-04-24T00:51:58;2.15;;;2.05;;
67768;SDS011;54569;52.018;5.584;2023-04-24T00:54:24;1.92;;;1.83;;
67768;SDS011;54569;52.018;5.584;2023-04-24T00:56:50;1.80;;;1.70;;
67768;SDS011;54569;52.018;5.584;2023-04-24T00:59:17;2.00;;;1.70;;
67768;SDS011;54569;52.018;5.584;2023-04-24T01:01:43;1.77;;;1.67;;
67768;SDS011;54569;52.018;5.584;2023-04-24T01:04:10;1.98;;;1.88;;
67768;SDS011;54569;52.018;5.584;2023-04-24T01:06:38;1.50;;;1.40;;
67768;SDS011;54569;52.018;5.584;2023-04-24T01:09:05;1.73;;;1.15;;
67768;SDS011;54569;52.018;5.584;2023-04-24T01:11:33;0.60;;;0.60;;
67768;SDS011;54569;52.018;5.584;2023-04-24T01:13:58;1.23;;;0.60;;
67768;SDS011;54569;52.018;5.584;2023-04-24T01:16:25;0.70;;;0.70;;
67768;SDS011;54569;52.018;5.584;2023-04-24T01:18:52;0.60;;;0.60;;
67768;SDS011;54569;52.018;5.584;2023-04-24T01:21:18;0.93;;;0.60;;
67768;SDS011;54569;52.018;5.584;2023-04-24T01:23:46;0.70;;;0.70;;
67768;SDS011;54569;52.018;5.584;2023-04-24T01:26:12;0.55;;;0.55;;
67768;SDS011;54569;52.018;5.584;2023-04-24T01:28:40;0.50;;;0.50;;
67768;SDS011;54569;52.018;5.584;2023-04-24T01:31:05;0.65;;;0.60;;
67768;SDS011;54569;52.018;5.584;2023-04-24T01:33:32;0.85;;;0.85;;
67768;SDS011;54569;52.018;5.584;2023-04-24T01:35:57;0.85;;;0.85;;
67768;SDS011;54569;52.018;5.584;2023-04-24T01:38:23;1.40;;;1.05;;
67768;SDS011;54569;52.018;5.584;2023-04-24T01:40:50;1.38;;;1.08;;
67768;SDS011;54569;52.018;5.584;2023-04-24T01:43:16;0.90;;;0.90;;
67768;SDS011;54569;52.018;5.584;2023-04-24T01:45:43;1.60;;;1.08;;
67768;SDS011;54569;52.018;5.584;2023-04-24T01:48:09;1.10;;;1.00;;
67768;SDS011;54569;52.018;5.584;2023-04-24T01:50:34;1.08;;;1.00;;
67768;SDS011;54569;52.018;5.584;2023-04-24T01:53:02;1.95;;;1.27;;
67768;SDS011;54569;52.018;5.584;2023-04-24T01:55:28;1.17;;;1.17;;
67768;SDS011;54569;52.018;5.584;2023-04-24T01:57:54;2.47;;;1.27;;
67768;SDS011;54569;52.018;5.584;2023-04-24T02:00:21;1.20;;;1.20;;
67768;SDS011;54569;52.018;5.584;2023-04-24T02:02:47;1.45;;;1.45;;
67768;SDS011;54569;52.018;5.584;2023-04-24T02:05:13;2.38;;;2.17;;
67768;SDS011;54569;52.018;5.584;2023-04-24T02:07:38;1.83;;;1.70;;
67768;SDS011;54569;52.018;5.584;2023-04-24T02:10:05;2.22;;;2.03;;
67768;SDS011;54569;52.018;5.584;2023-04-24T02:12:31;2.78;;;2.42;;
67768;SDS011;54569;52.018;5.584;2023-04-24T02:14:57;2.08;;;1.83;;
67768;SDS011;54569;52.018;5.584;2023-04-24T02:17:23;2.65;;;2.45;;
67768;SDS011;54569;52.018;5.584;2023-04-24T02:19:49;2.65;;;2.45;;
67768;SDS011;54569;52.018;5.584;2023-04-24T02:22:15;3.80;;;3.38;;
67768;SDS011;54569;52.018;5.584;2023-04-24T02:24:41;3.65;;;3.35;;
67768;SDS011;54569;52.018;5.584;2023-04-24T02:27:07;4.15;;;3.40;;
67768;SDS011;54569;52.018;5.584;2023-04-24T02:29:32;3.88;;;3.58;;
67768;SDS011;54569;52.018;5.584;2023-04-24T02:31:58;3.53;;;3.22;;
67768;SDS011;54569;52.018;5.584;2023-04-24T02:34:24;4.00;;;3.63;;
67768;SDS011;54569;52.018;5.584;2023-04-24T02:36:50;3.83;;;3.53;;
67768;SDS011;54569;52.018;5.584;2023-04-24T02:39:15;4.80;;;3.80;;
67768;SDS011;54569;52.018;5.584;2023-04-24T02:41:42;5.50;;;4.55;;
67768;SDS011;54569;52.018;5.584;2023-04-24T02:44:08;4.32;;;3.92;;
67768;SDS011;54569;52.018;5.584;2023-04-24T02:46:34;5.50;;;4.63;;
67768;SDS011;54569;52.018;5.584;2023-04-24T02:48:59;6.55;;;5.50;;
67768;SDS011;54569;52.018;5.584;2023-04-24T02:51:25;6.22;;;5.32;;
67768;SDS011;54569;52.018;5.584;2023-04-24T02:53:52;6.38;;;5.78;;
67768;SDS011;54569;52.018;5.584;2023-04-24T02:56:18;7.10;;;6.32;;
67768;SDS011;54569;52.018;5.584;2023-04-24T02:58:44;6.97;;;6.28;;
67768;SDS011;54569;52.018;5.584;2023-04-24T03:01:09;6.68;;;5.65;;
67768;SDS011;54569;52.018;5.584;2023-04-24T03:03:36;6.00;;;5.50;;
67768;SDS011;54569;52.018;5.584;2023-04-24T03:06:02;5.75;;;5.10;;
67768;SDS011;54569;52.018;5.584;2023-04-24T03:08:28;6.25;;;4.88;;
67768;SDS011;54569;52.018;5.584;2023-04-24T03:10:53;7.13;;;5.30;;
67768;SDS011;54569;52.018;5.584;2023-04-24T03:13:19;5.47;;;4.97;;
67768;SDS011;54569;52.018;5.584;2023-04-24T03:15:45;6.55;;;4.93;;
67768;SDS011;54569;52.018;5.584;2023-04-24T03:18:11;5.28;;;4.75;;
67768;SDS011;54569;52.018;5.584;2023-04-24T03:20:37;5.63;;;4.68;;
67768;SDS011;54569;52.018;5.584;2023-04-24T03:23:03;5.68;;;5.10;;
67768;SDS011;54569;52.018;5.584;2023-04-24T03:25:29;6.93;;;4.63;;
67768;SDS011;54569;52.018;5.584;2023-04-24T03:27:55;5.28;;;4.78;;
67768;SDS011;54569;52.018;5.584;2023-04-24T03:30:32;7.38;;;6.13;;
67768;SDS011;54569;52.018;5.584;2023-04-24T03:32:59;6.57;;;5.80;;
67768;SDS011;54569;52.018;5.584;2023-04-24T03:35:28;8.38;;;6.95;;
67768;SDS011;54569;52.018;5.584;2023-04-24T03:37:56;8.20;;;6.75;;
67768;SDS011;54569;52.018;5.584;2023-04-24T03:40:40;9.10;;;8.20;;
67768;SDS011;54569;52.018;5.584;2023-04-24T03:43:18;11.63;;;9.10;;
67768;SDS011;54569;52.018;5.584;2023-04-24T03:45:44;11.43;;;8.75;;
67768;SDS011;54569;52.018;5.584;2023-04-24T03:48:12;10.20;;;9.07;;
67768;SDS011;54569;52.018;5.584;2023-04-24T03:50:38;11.88;;;10.18;;
67768;SDS011;54569;52.018;5.584;2023-04-24T03:53:05;16.17;;;10.45;;
67768;SDS011;54569;52.018;5.584;2023-04-24T03:55:36;13.45;;;10.63;;
67768;SDS011;54569;52.018;5.584;2023-04-24T03:58:02;14.85;;;11.70;;
67768;SDS011;54569;52.018;5.584;2023-04-24T04:00:28;12.68;;;10.25;;
67768;SDS011;54569;52.018;5.584;2023-04-24T04:03:13;13.38;;;11.50;;
67768;SDS011;54569;52.018;5.584;2023-04-24T04:05:40;15.38;;;12.07;;
67768;SDS011;54569;52.018;5.584;2023-04-24T04:08:06;14.05;;;12.02;;
67768;SDS011;54569;52.018;5.584;2023-04-24T04:10:32;12.07;;;10.80;;
67768;SDS011;54569;52.018;5.584;2023-04-24T04:12:57;13.35;;;11.25;;
67768;SDS011;54569;52.018;5.584;2023-04-24T04:15:23;18.42;;;11.30;;
67768;SDS011;54569;52.018;5.584;2023-04-24T04:17:49;13.43;;;11.27;;
67768;SDS011;54569;52.018;5.584;2023-04-24T04:20:15;13.20;;;11.38;;
67768;SDS011;54569;52.018;5.584;2023-04-24T04:22:41;15.13;;;11.48;;
67768;SDS011;54569;52.018;5.584;2023-04-24T04:25:08;15.30;;;11.23;;
67768;SDS011;54569;52.018;5.584;2023-04-24T04:27:35;11.75;;;9.82;;
67768;SDS011;54569;52.018;5.584;2023-04-24T04:30:07;12.45;;;9.82;;
67768;SDS011;54569;52.018;5.584;2023-04-24T04:32:41;12.52;;;9.85;;
67768;SDS011;54569;52.018;5.584;2023-04-24T04:35:07;10.20;;;8.55;;
67768;SDS011;54569;52.018;5.584;2023-04-24T04:37:33;10.43;;;9.10;;
67768;SDS011;54569;52.018;5.584;2023-04-24T04:40:11;13.15;;;9.48;;
67768;SDS011;54569;52.018;5.584;2023-04-24T04:42:46;9.30;;;7.40;;
67768;SDS011;54569;52.018;5.584;2023-04-24T04:45:13;7.25;;;6.25;;
67768;SDS011;54569;52.018;5.584;2023-04-24T04:47:59;7.28;;;5.65;;
67768;SDS011;54569;52.018;5.584;2023-04-24T04:50:28;7.57;;;6.43;;
67768;SDS011;54569;52.018;5.584;2023-04-24T04:53:00;7.13;;;6.43;;
67768;SDS011;54569;52.018;5.584;2023-04-24T04:55:31;6.75;;;5.90;;
67768;SDS011;54569;52.018;5.584;2023-04-24T04:58:06;8.93;;;7.03;;
67768;SDS011;54569;52.018;5.584;2023-04-24T05:00:32;8.45;;;7.22;;
67768;SDS011;54569;52.018;5.584;2023-04-24T05:03:04;6.82;;;5.25;;
67768;SDS011;54569;52.018;5.584;2023-04-24T05:05:30;7.80;;;5.45;;
67768;SDS011;54569;52.018;5.584;2023-04-24T05:07:56;6.18;;;5.03;;
67768;SDS011;54569;52.018;5.584;2023-04-24T05:10:23;5.15;;;4.65;;
67768;SDS011;54569;52.018;5.584;2023-04-24T05:12:51;6.50;;;4.53;;
67768;SDS011;54569;52.018;5.584;2023-04-24T05:15:19;7.65;;;4.72;;
67768;SDS011;54569;52.018;5.584;2023-04-24T05:17:45;4.70;;;4.07;;
67768;SDS011;54569;52.018;5.584;2023-04-24T05:20:12;6.50;;;4.95;;
67768;SDS011;54569;52.018;5.584;2023-04-24T05:22:38;6.80;;;3.72;;
67768;SDS011;54569;52.018;5.584;2023-04-24T05:25:04;4.13;;;3.10;;
67768;SDS011;54569;52.018;5.584;2023-04-24T05:27:57;4.60;;;3.08;;
67768;SDS011;54569;52.018;5.584;2023-04-24T05:30:22;3.95;;;3.42;;
67768;SDS011;54569;52.018;5.584;2023-04-24T05:32:49;4.20;;;3.80;;
67768;SDS011;54569;52.018;5.584;2023-04-24T05:35:14;6.25;;;4.40;;
67768;SDS011;54569;52.018;5.584;2023-04-24T05:37:40;5.90;;;3.67;;
67768;SDS011;54569;52.018;5.584;2023-04-24T05:40:07;3.28;;;2.92;;
67768;SDS011;54569;52.018;5.584;2023-04-24T05:42:34;3.30;;;2.88;;
67768;SDS011;54569;52.018;5.584;2023-04-24T05:44:59;5.30;;;3.53;;
67768;SDS011;54569;52.018;5.584;2023-04-24T05:47:25;3.80;;;2.92;;
67768;SDS011;54569;52.018;5.584;2023-04-24T05:49:52;2.97;;;2.63;;
67768;SDS011;54569;52.018;5.584;2023-04-24T05:52:18;2.85;;;2.65;;
67768;SDS011;54569;52.018;5.584;2023-04-24T05:54:44;2.75;;;2.50;;
67768;SDS011;54569;52.018;5.584;2023-04-24T05:57:13;2.90;;;2.70;;
67768;SDS011;54569;52.018;5.584;2023-04-24T05:59:52;6.82;;;2.95;;
67768;SDS011;54569;52.018;5.584;2023-04-24T06:02:19;2.60;;;2.40;;
67768;SDS011;54569;52.018;5.584;2023-04-24T06:04:45;5.97;;;3.10;;
67768;SDS011;54569;52.018;5.584;2023-04-24T06:07:11;2.85;;;2.55;;
67768;SDS011;54569;52.018;5.584;2023-04-24T06:09:38;2.80;;;2.53;;
67768;SDS011;54569;52.018;5.584;2023-04-24T06:12:03;3.58;;;2.42;;
67768;SDS011;54569;52.018;5.584;2023-04-24T06:14:43;2.50;;;2.30;;
67768;SDS011;54569;52.018;5.584;2023-04-24T06:17:17;2.63;;;2.17;;
67768;SDS011;54569;52.018;5.584;2023-04-24T06:19:44;2.35;;;2.15;;
67768;SDS011;54569;52.018;5.584;2023-04-24T06:22:10;2.30;;;2.10;;
67768;SDS011;54569;52.018;5.584;2023-04-24T06:24:35;3.05;;;2.03;;
67768;SDS011;54569;52.018;5.584;2023-04-24T06:27:01;3.35;;;2.22;;
67768;SDS011;54569;52.018;5.584;2023-04-24T06:29:27;2.50;;;2.30;;
67768;SDS011;54569;52.018;5.584;2023-04-24T06:31:53;4.80;;;2.80;;
67768;SDS011;54569;52.018;5.584;2023-04-24T06:34:18;7.32;;;2.80;;
67768;SDS011;54569;52.018;5.584;2023-04-24T06:36:46;3.85;;;2.47;;
67768;SDS011;54569;52.018;5.584;2023-04-24T06:39:11;2.40;;;2.20;;
67768;SDS011;54569;52.018;5.584;2023-04-24T06:41:37;2.50;;;2.30;;
67768;SDS011;54569;52.018;5.584;2023-04-24T06:44:04;2.40;;;2.17;;
67768;SDS011;54569;52.018;5.584;2023-04-24T06:46:30;2.78;;;2.38;;
67768;SDS011;54569;52.018;5.584;2023-04-24T06:48:56;2.72;;;2.33;;
67768;SDS011;54569;52.018;5.584;2023-04-24T06:51:25;3.22;;;2.08;;
67768;SDS011;54569;52.018;5.584;2023-04-24T06:53:55;2.13;;;1.35;;
67768;SDS011;54569;52.018;5.584;2023-04-24T06:56:21;1.77;;;1.30;;
67768;SDS011;54569;52.018;5.584;2023-04-24T06:58:47;1.30;;;1.23;;
67768;SDS011;54569;52.018;5.584;2023-04-24T07:01:13;2.28;;;1.23;;
67768;SDS011;54569;52.018;5.584;2023-04-24T07:03:39;1.27;;;1.17;;
67768;SDS011;54569;52.018;5.584;2023-04-24T07:06:07;2.08;;;1.20;;
67768;SDS011;54569;52.018;5.584;2023-04-24T07:08:35;1.48;;;1.20;;
67768;SDS011;54569;52.018;5.584;2023-04-24T07:11:00;2.15;;;1.95;;
67768;SDS011;54569;52.018;5.584;2023-04-24T07:13:26;2.88;;;2.67;;
67768;SDS011;54569;52.018;5.584;2023-04-24T07:15:53;4.15;;;3.33;;
67768;SDS011;54569;52.018;5.584;2023-04-24T07:18:23;4.82;;;4.03;;
67768;SDS011;54569;52.018;5.584;2023-04-24T07:20:49;5.53;;;3.72;;
67768;SDS011;54569;52.018;5.584;2023-04-24T07:23:17;5.90;;;4.53;;
67768;SDS011;54569;52.018;5.584;2023-04-24T07:25:44;7.03;;;4.82;;
67768;SDS011;54569;52.018;5.584;2023-04-24T07:28:10;6.65;;;5.13;;
67768;SDS011;54569;52.018;5.584;2023-04-24T07:30:35;8.32;;;5.43;;
67768;SDS011;54569;52.018;5.584;2023-04-24T07:33:01;7.20;;;5.65;;
67768;SDS011;54569;52.018;5.584;2023-04-24T07:35:27;7.90;;;6.43;;
67768;SDS011;54569;52.018;5.584;2023-04-24T07:37:53;7.03;;;6.25;;
67768;SDS011;54569;52.018;5.584;2023-04-24T07:40:19;13.95;;;6.60;;
67768;SDS011;54569;52.018;5.584;2023-04-24T07:42:45;8.30;;;5.97;;
67768;SDS011;54569;52.018;5.584;2023-04-24T07:45:13;8.82;;;6.57;;
67768;SDS011;54569;52.018;5.584;2023-04-24T07:47:39;9.02;;;6.32;;
67768;SDS011;54569;52.018;5.584;2023-04-24T07:50:09;8.23;;;6.22;;
67768;SDS011;54569;52.018;5.584;2023-04-24T07:52:35;9.68;;;6.57;;
67768;SDS011;54569;52.018;5.584;2023-04-24T07:55:01;10.65;;;6.65;;
67768;SDS011;54569;52.018;5.584;2023-04-24T07:57:27;10.15;;;7.13;;
67768;SDS011;54569;52.018;5.584;2023-04-24T07:59:53;10.23;;;7.13;;
67768;SDS011;54569;52.018;5.584;2023-04-24T08:02:19;11.00;;;6.95;;
67768;SDS011;54569;52.018;5.584;2023-04-24T08:04:46;9.05;;;6.93;;
67768;SDS011;54569;52.018;5.584;2023-04-24T08:07:12;12.05;;;6.85;;
67768;SDS011;54569;52.018;5.584;2023-04-24T08:09:38;9.48;;;6.20;;
67768;SDS011;54569;52.018;5.584;2023-04-24T08:12:03;10.40;;;6.47;;
67768;SDS011;54569;52.018;5.584;2023-04-24T08:14:29;9.60;;;6.70;;
67768;SDS011;54569;52.018;5.584;2023-04-24T08:16:55;8.18;;;6.25;;
67768;SDS011;54569;52.018;5.584;2023-04-24T08:19:21;7.32;;;5.93;;
67768;SDS011;54569;52.018;5.584;2023-04-24T08:21:47;8.20;;;5.82;;
67768;SDS011;54569;52.018;5.584;2023-04-24T08:24:12;10.57;;;6.25;;
67768;SDS011;54569;52.018;5.584;2023-04-24T08:26:38;10.73;;;6.28;;
67768;SDS011;54569;52.018;5.584;2023-04-24T08:29:04;11.23;;;6.43;;
67768;SDS011;54569;52.018;5.584;2023-04-24T08:31:32;9.05;;;6.60;;
67768;SDS011;54569;52.018;5.584;2023-04-24T08:33:57;10.13;;;6.43;;
67768;SDS011;54569;52.018;5.584;2023-04-24T08:36:25;9.20;;;6.22;;
67768;SDS011;54569;52.018;5.584;2023-04-24T08:38:51;7.07;;;5.40;;
67768;SDS011;54569;52.018;5.584;2023-04-24T08:41:17;6.55;;;4.10;;
67768;SDS011;54569;52.018;5.584;2023-04-24T08:43:43;7.78;;;3.13;;
67768;SDS011;54569;52.018;5.584;2023-04-24T08:46:13;9.13;;;3.85;;
67768;SDS011;54569;52.018;5.584;2023-04-24T08:48:41;6.93;;;3.08;;
67768;SDS011;54569;52.018;5.584;2023-04-24T08:51:07;10.70;;;3.80;;
67768;SDS011;54569;52.018;5.584;2023-04-24T08:53:34;14.63;;;4.18;;
67768;SDS011;54569;52.018;5.584;2023-04-24T08:56:00;11.98;;;4.13;;
67768;SDS011;54569;52.018;5.584;2023-04-24T08:58:27;11.82;;;4.25;;
67768;SDS011;54569;52.018;5.584;2023-04-24T09:00:54;7.88;;;2.90;;
67768;SDS011;54569;52.018;5.584;2023-04-24T09:03:20;7.18;;;3.03;;
67768;SDS011;54569;52.018;5.584;2023-04-24T09:05:46;10.43;;;3.22;;
67768;SDS011;54569;52.018;5.584;2023-04-24T09:08:14;13.15;;;3.08;;
67768;SDS011;54569;52.018;5.584;2023-04-24T09:10:43;8.40;;;2.15;;
67768;SDS011;54569;52.018;5.584;2023-04-24T09:13:09;5.90;;;2.22;;
67768;SDS011;54569;52.018;5.584;2023-04-24T09:15:36;7.50;;;2.10;;
67768;SDS011;54569;52.018;5.584;2023-04-24T09:18:02;6.63;;;2.13;;
67768;SDS011;54569;52.018;5.584;2023-04-24T09:20:27;6.68;;;2.00;;
67768;SDS011;54569;52.018;5.584;2023-04-24T09:22:54;7.68;;;2.45;;
67768;SDS011;54569;52.018;5.584;2023-04-24T09:25:21;8.50;;;2.55;;
67768;SDS011;54569;52.018;5.584;2023-04-24T09:27:47;3.53;;;1.80;;
67768;SDS011;54569;52.018;5.584;2023-04-24T09:30:13;4.50;;;1.95;;
67768;SDS011;54569;52.018;5.584;2023-04-24T09:32:45;9.25;;;2.50;;
67768;SDS011;54569;52.018;5.584;2023-04-24T09:35:12;10.80;;;2.40;;
67768;SDS011;54569;52.018;5.584;2023-04-24T09:37:39;11.68;;;2.53;;
67768;SDS011;54569;52.018;5.584;2023-04-24T09:40:10;8.77;;;2.30;;
67768;SDS011;54569;52.018;5.584;2023-04-24T09:42:38;10.75;;;2.38;;
67768;SDS011;54569;52.018;5.584;2023-04-24T09:45:08;7.00;;;1.95;;
67768;SDS011;54569;52.018;5.584;2023-04-24T09:47:36;11.45;;;2.72;;
67768;SDS011;54569;52.018;5.584;2023-04-24T09:50:11;8.23;;;2.22;;
67768;SDS011;54569;52.018;5.584;2023-04-24T09:52:45;8.75;;;3.22;;
67768;SDS011;54569;52.018;5.584;2023-04-24T09:55:20;10.02;;;2.85;;
67768;SDS011;54569;52.018;5.584;2023-04-24T09:57:47;12.13;;;2.30;;
67768;SDS011;54569;52.018;5.584;2023-04-24T10:00:23;8.35;;;2.67;;
67768;SDS011;54569;52.018;5.584;2023-04-24T10:02:54;7.30;;;2.28;;
67768;SDS011;54569;52.018;5.584;2023-04-24T10:05:26;8.57;;;2.25;;
67768;SDS011;54569;52.018;5.584;2023-04-24T10:07:57;6.63;;;2.00;;
67768;SDS011;54569;52.018;5.584;2023-04-24T10:10:31;9.88;;;2.70;;
67768;SDS011;54569;52.018;5.584;2023-04-24T10:12:57;10.10;;;2.38;;
67768;SDS011;54569;52.018;5.584;2023-04-24T10:15:24;7.18;;;1.98;;
67768;SDS011;54569;52.018;5.584;2023-04-24T10:17:51;6.40;;;2.28;;
67768;SDS011;54569;52.018;5.584;2023-04-24T10:20:18;4.43;;;1.52;;
67768;SDS011;54569;52.018;5.584;2023-04-24T10:22:47;7.13;;;2.70;;
67768;SDS011;54569;52.018;5.584;2023-04-24T10:25:18;4.95;;;1.73;;
67768;SDS011;54569;52.018;5.584;2023-04-24T10:27:48;5.80;;;1.95;;
67768;SDS011;54569;52.018;5.584;2023-04-24T10:30:15;4.90;;;2.00;;
67768;SDS011;54569;52.018;5.584;2023-04-24T10:32:42;9.25;;;1.83;;
67768;SDS011;54569;52.018;5.584;2023-04-24T10:35:08;7.45;;;2.03;;
67768;SDS011;54569;52.018;5.584;2023-04-24T10:37:43;6.97;;;1.67;;
67768;SDS011;54569;52.018;5.584;2023-04-24T10:40:11;6.40;;;2.00;;
67768;SDS011;54569;52.018;5.584;2023-04-24T10:42:42;5.88;;;2.10;;
67768;SDS011;54569;52.018;5.584;2023-04-24T10:45:21;4.80;;;1.60;;
67768;SDS011;54569;52.018;5.584;2023-04-24T10:47:58;5.60;;;1.67;;
67768;SDS011;54569;52.018;5.584;2023-04-24T10:50:28;6.72;;;1.98;;
67768;SDS011;54569;52.018;5.584;2023-04-24T10:53:16;5.60;;;1.30;;
67768;SDS011;54569;52.018;5.584;2023-04-24T10:55:52;3.50;;;1.23;;
67768;SDS011;54569;52.018;5.584;2023-04-24T10:58:51;3.35;;;0.90;;
67768;SDS011;54569;52.018;5.584;2023-04-24T11:01:27;4.80;;;1.10;;
67768;SDS011;54569;52.018;5.584;2023-04-24T11:03:59;2.40;;;0.95;;
67768;SDS011;54569;52.018;5.584;2023-04-24T11:06:36;4.55;;;1.00;;
67768;SDS011;54569;52.018;5.584;2023-04-24T11:09:09;2.08;;;1.00;;
67768;SDS011;54569;52.018;5.584;2023-04-24T11:11:37;3.60;;;1.13;;
67768;SDS011;54569;52.018;5.584;2023-04-24T11:14:09;5.35;;;1.73;;
67768;SDS011;54569;52.018;5.584;2023-04-24T11:16:36;6.47;;;1.25;;
67768;SDS011;54569;52.018;5.584;2023-04-24T11:19:20;3.80;;;0.65;;
67768;SDS011;54569;52.018;5.584;2023-04-24T11:22:02;2.97;;;0.60;;
67768;SDS011;54569;52.018;5.584;2023-04-24T11:27:17;4.55;;;0.80;;
67768;SDS011;54569;52.018;5.584;2023-04-24T11:35:29;3.22;;;0.80;;
67768;SDS011;54569;52.018;5.584;2023-04-24T11:37:55;2.55;;;0.70;;
67768;SDS011;54569;52.018;5.584;2023-04-24T11:40:22;2.05;;;0.70;;
67768;SDS011;54569;52.018;5.584;2023-04-24T11:42:51;2.17;;;0.70;;
67768;SDS011;54569;52.018;5.584;2023-04-24T11:45:25;3.40;;;1.08;;
67768;SDS011;54569;52.018;5.584;2023-04-24T11:47:52;1.95;;;0.80;;
67768;SDS011;54569;52.018;5.584;2023-04-24T11:50:19;1.58;;;0.75;;
67768;SDS011;54569;52.018;5.584;2023-04-24T11:52:48;3.17;;;0.90;;
67768;SDS011;54569;52.018;5.584;2023-04-24T11:57:44;3.22;;;1.02;;
67768;SDS011;54569;52.018;5.584;2023-04-24T12:02:44;4.75;;;1.10;;
67768;SDS011;54569;52.018;5.584;2023-04-24T12:05:26;4.95;;;1.10;;
67768;SDS011;54569;52.018;5.584;2023-04-24T12:07:52;2.58;;;0.95;;
67768;SDS011;54569;52.018;5.584;2023-04-24T12:10:23;1.58;;;0.70;;
67768;SDS011;54569;52.018;5.584;2023-04-24T12:12:49;2.72;;;0.68;;
67768;SDS011;54569;52.018;5.584;2023-04-24T12:15:16;1.60;;;0.80;;
67768;SDS011;54569;52.018;5.584;2023-04-24T12:17:46;1.85;;;0.60;;
67768;SDS011;54569;52.018;5.584;2023-04-24T12:20:12;3.25;;;0.75;;
67768;SDS011;54569;52.018;5.584;2023-04-24T12:22:54;0.98;;;0.63;;
67768;SDS011;54569;52.018;5.584;2023-04-24T12:25:31;1.45;;;0.80;;
67768;SDS011;54569;52.018;5.584;2023-04-24T12:30:50;1.67;;;0.60;;
67768;SDS011;54569;52.018;5.584;2023-04-24T12:33:19;2.10;;;0.55;;
67768;SDS011;54569;52.018;5.584;2023-04-24T12:35:45;2.90;;;0.65;;
67768;SDS011;54569;52.018;5.584;2023-04-24T12:38:12;1.92;;;0.73;;
67768;SDS011;54569;52.018;5.584;2023-04-24T12:40:39;2.78;;;0.77;;
67768;SDS011;54569;52.018;5.584;2023-04-24T12:43:14;1.02;;;0.60;;
67768;SDS011;54569;52.018;5.584;2023-04-24T12:45:42;2.55;;;0.80;;
67768;SDS011;54569;52.018;5.584;2023-04-24T12:48:07;2.47;;;0.68;;
67768;SDS011;54569;52.018;5.584;2023-04-24T12:50:33;3.42;;;0.85;;
67768;SDS011;54569;52.018;5.584;2023-04-24T12:52:59;3.35;;;0.88;;
67768;SDS011;54569;52.018;5.584;2023-04-24T12:55:25;1.77;;;0.85;;
67768;SDS011;54569;52.018;5.584;2023-04-24T12:57:50;6.78;;;1.40;;
67768;SDS011;54569;52.018;5.584;2023-04-24T13:00:18;3.13;;;1.00;;
67768;SDS011;54569;52.018;5.584;2023-04-24T13:02:43;3.63;;;1.05;;
67768;SDS011;54569;52.018;5.584;2023-04-24T13:05:09;3.00;;;1.10;;
67768;SDS011;54569;52.018;5.584;2023-04-24T13:07:36;3.30;;;1.10;;
67768;SDS011;54569;52.018;5.584;2023-04-24T13:10:02;4.45;;;1.30;;
67768;SDS011;54569;52.018;5.584;2023-04-24T13:12:27;4.38;;;1.30;;
67768;SDS011;54569;52.018;5.584;2023-04-24T13:14:53;4.90;;;1.60;;
67768;SDS011;54569;52.018;5.584;2023-04-24T13:17:19;6.28;;;1.48;;
67768;SDS011;54569;52.018;5.584;2023-04-24T13:19:45;7.70;;;1.85;;
67768;SDS011;54569;52.018;5.584;2023-04-24T13:22:11;3.40;;;1.27;;
67768;SDS011;54569;52.018;5.584;2023-04-24T13:24:37;5.05;;;1.30;;
67768;SDS011;54569;52.018;5.584;2023-04-24T13:27:05;3.97;;;1.23;;
67768;SDS011;54569;52.018;5.584;2023-04-24T13:29:31;3.42;;;1.45;;
67768;SDS011;54569;52.018;5.584;2023-04-24T13:31:57;7.55;;;1.83;;
67768;SDS011;54569;52.018;5.584;2023-04-24T13:34:23;6.45;;;1.58;;
67768;SDS011;54569;52.018;5.584;2023-04-24T13:36:50;5.15;;;1.98;;
67768;SDS011;54569;52.018;5.584;2023-04-24T13:39:17;4.65;;;1.48;;
67768;SDS011;54569;52.018;5.584;2023-04-24T13:41:43;6.68;;;1.73;;
67768;SDS011;54569;52.018;5.584;2023-04-24T13:44:09;4.90;;;1.38;;
67768;SDS011;54569;52.018;5.584;2023-04-24T13:46:34;5.80;;;1.48;;
67768;SDS011;54569;52.018;5.584;2023-04-24T13:49:01;9.75;;;1.98;;
67768;SDS011;54569;52.018;5.584;2023-04-24T13:51:28;4.30;;;1.55;;
67768;SDS011;54569;52.018;5.584;2023-04-24T13:53:54;4.78;;;1.98;;
67768;SDS011;54569;52.018;5.584;2023-04-24T13:56:20;6.60;;;2.15;;
67768;SDS011;54569;52.018;5.584;2023-04-24T13:58:48;5.88;;;2.00;;
67768;SDS011;54569;52.018;5.584;2023-04-24T14:01:14;12.05;;;2.58;;
67768;SDS011;54569;52.018;5.584;2023-04-24T14:03:40;4.88;;;1.50;;
67768;SDS011;54569;52.018;5.584;2023-04-24T14:06:06;7.20;;;1.90;;
67768;SDS011;54569;52.018;5.584;2023-04-24T14:08:32;8.43;;;1.77;;
67768;SDS011;54569;52.018;5.584;2023-04-24T14:10:58;4.60;;;1.70;;
67768;SDS011;54569;52.018;5.584;2023-04-24T14:13:24;4.93;;;1.90;;
67768;SDS011;54569;52.018;5.584;2023-04-24T14:15:49;7.00;;;2.00;;
67768;SDS011;54569;52.018;5.584;2023-04-24T14:18:16;5.60;;;1.85;;
67768;SDS011;54569;52.018;5.584;2023-04-24T14:20:42;6.05;;;2.40;;
67768;SDS011;54569;52.018;5.584;2023-04-24T14:23:07;6.70;;;2.30;;
67768;SDS011;54569;52.018;5.584;2023-04-24T14:25:33;9.30;;;2.00;;
67768;SDS011;54569;52.018;5.584;2023-04-24T14:27:59;4.88;;;1.55;;
67768;SDS011;54569;52.018;5.584;2023-04-24T14:30:25;6.15;;;2.15;;
67768;SDS011;54569;52.018;5.584;2023-04-24T14:32:50;4.60;;;1.92;;
67768;SDS011;54569;52.018;5.584;2023-04-24T14:35:16;4.95;;;2.05;;
67768;SDS011;54569;52.018;5.584;2023-04-24T14:37:42;4.85;;;1.90;;
67768;SDS011;54569;52.018;5.584;2023-04-24T14:40:07;6.53;;;1.95;;
67768;SDS011;54569;52.018;5.584;2023-04-24T14:42:34;3.65;;;1.70;;
67768;SDS011;54569;52.018;5.584;2023-04-24T14:45:00;8.45;;;2.30;;
67768;SDS011;54569;52.018;5.584;2023-04-24T14:47:26;6.28;;;2.03;;
67768;SDS011;54569;52.018;5.584;2023-04-24T14:49:52;7.25;;;2.22;;
67768;SDS011;54569;52.018;5.584;2023-04-24T14:52:18;5.40;;;1.95;;
67768;SDS011;54569;52.018;5.584;2023-04-24T14:54:44;8.25;;;2.42;;
67768;SDS011;54569;52.018;5.584;2023-04-24T14:57:10;8.65;;;2.42;;
67768;SDS011;54569;52.018;5.584;2023-04-24T14:59:36;6.55;;;2.20;;
67768;SDS011;54569;52.018;5.584;2023-04-24T15:02:02;6.68;;;2.30;;
67768;SDS011;54569;52.018;5.584;2023-04-24T15:04:28;6.97;;;2.33;;